createdAt,value
2022-12-25T00:00:48.224Z,32.45
2022-12-25T00:03:22.025Z,36.53
2022-12-25T00:05:52.637Z,32.63
2022-12-25T00:08:21.479Z,34.45
2022-12-25T00:11:00.946Z,34.65
2022-12-25T00:13:30.380Z,35.30
2022-12-25T00:15:59.861Z,36.17
2022-12-25T00:18:30.243Z,28.65
2022-12-25T00:21:12.374Z,32.97
2022-12-25T00:23:42.236Z,30.02
2022-12-25T00:26:19.392Z,28.35
2022-12-25T00:28:47.067Z,26.42
2022-12-25T00:31:20.474Z,30.80
2022-12-25T00:33:49.121Z,26.25
2022-12-25T00:36:20.981Z,27.27
2022-12-25T00:38:48.985Z,26.70
2022-12-25T00:41:39.454Z,26.27
2022-12-25T00:44:11.901Z,23.23
2022-12-25T00:46:40.823Z,24.42
2022-12-25T00:49:18.824Z,25.30
2022-12-25T00:51:48.448Z,25.10
2022-12-25T00:54:27.928Z,25.30
2022-12-25T00:59:42.798Z,26.92
2022-12-25T01:02:31.453Z,28.17
2022-12-25T01:05:01.093Z,26.40
2022-12-25T01:07:28.645Z,23.80
2022-12-25T01:10:15.468Z,22.65
2022-12-25T01:12:46.564Z,22.63
2022-12-25T01:15:18.037Z,23.88
2022-12-25T01:17:47.359Z,24.38
2022-12-25T01:20:24.540Z,24.90
2022-12-25T01:22:52.101Z,25.35
2022-12-25T01:25:24.373Z,24.27
2022-12-25T01:27:52.061Z,23.95
2022-12-25T01:30:21.268Z,25.08
2022-12-25T01:32:51.656Z,24.33
2022-12-25T01:35:21.106Z,24.65
2022-12-25T01:37:49.931Z,23.35
2022-12-25T01:40:20.393Z,23.67
2022-12-25T01:42:51.353Z,25.67
2022-12-25T01:45:49.471Z,25.85
2022-12-25T01:48:21.246Z,25.02
2022-12-25T01:51:11.419Z,24.33
2022-12-25T01:53:43.695Z,24.92
2022-12-25T01:56:14.251Z,20.70
2022-12-25T01:58:45.598Z,21.45
2022-12-25T02:01:13.254Z,22.58
2022-12-25T02:03:44.813Z,21.80
2022-12-25T02:06:16.647Z,19.65
2022-12-25T02:08:44.282Z,19.23
2022-12-25T02:11:34.563Z,18.20
2022-12-25T02:14:06.265Z,17.55
2022-12-25T02:16:58.292Z,19.52
2022-12-25T02:19:38.082Z,16.92
2022-12-25T02:22:45.601Z,17.98
2022-12-25T02:25:33.943Z,16.00
2022-12-25T02:28:25.825Z,17.05
2022-12-25T02:31:16.424Z,15.93
2022-12-25T02:34:14.399Z,17.83
2022-12-25T02:37:29.847Z,17.27
2022-12-25T02:40:11.133Z,19.42
2022-12-25T02:43:30.588Z,19.60
2022-12-25T02:46:56.145Z,16.30
2022-12-25T02:49:49.043Z,20.42
2022-12-25T02:52:46.590Z,21.33
2022-12-25T02:55:42.844Z,21.88
2022-12-25T02:58:35.517Z,21.13
2022-12-25T03:01:30.686Z,20.02
2022-12-25T03:04:40.175Z,21.98
2022-12-25T03:07:20.754Z,21.05
2022-12-25T03:10:29.619Z,24.98
2022-12-25T03:13:17.023Z,21.83
2022-12-25T03:16:09.441Z,22.35
2022-12-25T03:18:39.963Z,18.88
2022-12-25T03:21:30.168Z,16.90
2022-12-25T03:24:22.503Z,14.70
2022-12-25T03:27:04.429Z,14.00
2022-12-25T03:29:55.877Z,13.68
2022-12-25T03:33:18.024Z,14.77
2022-12-25T03:36:17.501Z,15.82
2022-12-25T03:39:35.715Z,15.75
2022-12-25T03:42:27.751Z,15.57
2022-12-25T03:45:26.759Z,15.10
2022-12-25T03:48:18.896Z,16.15
2022-12-25T03:51:27.888Z,15.70
2022-12-25T03:54:25.626Z,14.93
2022-12-25T03:57:13.620Z,16.02
2022-12-25T04:00:01.818Z,16.13
2022-12-25T04:03:18.386Z,15.57
2022-12-25T04:06:07.892Z,15.20
2022-12-25T04:08:57.865Z,18.83
2022-12-25T04:11:47.909Z,20.25
2022-12-25T04:14:42.172Z,21.67
2022-12-25T04:17:31.073Z,23.33
2022-12-25T04:20:20.921Z,21.58
2022-12-25T04:23:11.315Z,23.35
2022-12-25T04:26:03.290Z,23.23
2022-12-25T04:28:55.177Z,22.10
2022-12-25T04:31:46.770Z,25.02
2022-12-25T04:34:37.635Z,24.58
2022-12-25T04:37:08.275Z,26.95
2022-12-25T04:39:36.234Z,25.80
2022-12-25T04:42:04.240Z,26.60
2022-12-25T04:44:37.477Z,22.15
2022-12-25T04:47:11.009Z,22.98
2022-12-25T04:49:43.693Z,21.98
2022-12-25T04:52:13.877Z,23.67
2022-12-25T04:54:42.767Z,26.67
2022-12-25T04:57:11.739Z,27.13
2022-12-25T04:59:39.286Z,27.98
2022-12-25T05:02:11.135Z,27.88
2022-12-25T05:04:41.291Z,27.88
2022-12-25T05:07:10.193Z,27.67
2022-12-25T05:09:44.814Z,27.80
2022-12-25T05:12:15.642Z,27.67
2022-12-25T05:14:43.263Z,23.88
2022-12-25T05:17:11.590Z,25.05
2022-12-25T05:19:39.488Z,23.42
2022-12-25T05:22:09.384Z,24.67
2022-12-25T05:24:39.963Z,24.13
2022-12-25T05:27:08.908Z,23.38
2022-12-25T05:29:37.550Z,23.05
2022-12-25T05:32:07.615Z,23.27
2022-12-25T05:34:37.798Z,23.88
2022-12-25T05:37:08.690Z,21.67
2022-12-25T05:39:38.868Z,24.63
2022-12-25T05:42:08.645Z,37.78
2022-12-25T05:44:42.054Z,34.33
2022-12-25T05:47:13.733Z,39.30
2022-12-25T05:49:43.955Z,31.33
2022-12-25T05:52:14.277Z,27.73
2022-12-25T05:54:42.323Z,24.48
2022-12-25T05:57:13.752Z,18.77
2022-12-25T05:59:41.297Z,21.73
2022-12-25T06:02:09.289Z,20.38
2022-12-25T06:04:38.576Z,21.65
2022-12-25T06:07:09.774Z,28.33
2022-12-25T06:09:41.806Z,35.00
2022-12-25T06:12:11.630Z,36.97
2022-12-25T06:14:40.702Z,31.55
2022-12-25T06:17:10.765Z,27.45
2022-12-25T06:19:42.818Z,27.77
2022-12-25T06:22:15.350Z,27.00
2022-12-25T06:24:46.885Z,26.80
2022-12-25T06:27:15.996Z,26.70
2022-12-25T06:29:43.640Z,25.75
2022-12-25T06:32:15.182Z,27.63
2022-12-25T06:34:43.195Z,29.23
2022-12-25T06:37:13.019Z,28.60
2022-12-25T06:39:45.819Z,26.67
2022-12-25T06:42:15.870Z,26.80
2022-12-25T06:44:49.410Z,29.00
2022-12-25T06:47:20.279Z,26.70
2022-12-25T06:49:50.259Z,25.08
2022-12-25T06:52:20.720Z,25.73
2022-12-25T06:54:51.900Z,23.85
2022-12-25T06:57:22.149Z,23.98
2022-12-25T06:59:55.546Z,22.88
2022-12-25T07:02:28.762Z,23.40
2022-12-25T07:05:00.474Z,62.28
2022-12-25T07:07:28.366Z,57.90
2022-12-25T07:10:01.380Z,39.97
2022-12-25T07:12:36.089Z,33.80
2022-12-25T07:15:06.062Z,33.95
2022-12-25T07:17:38.720Z,39.20
2022-12-25T07:20:12.483Z,44.67
2022-12-25T07:22:42.682Z,36.90
2022-12-25T07:25:13.998Z,40.47
2022-12-25T07:27:44.890Z,40.85
2022-12-25T07:30:14.196Z,37.55
2022-12-25T07:32:49.859Z,50.38
2022-12-25T07:35:18.415Z,42.22
2022-12-25T07:37:48.959Z,38.30
2022-12-25T07:40:20.612Z,39.42
2022-12-25T07:42:51.537Z,41.10
2022-12-25T07:45:22.967Z,39.67
2022-12-25T07:47:55.009Z,38.03
2022-12-25T07:50:28.394Z,37.47
2022-12-25T07:52:59.948Z,37.22
2022-12-25T07:55:30.061Z,36.33
2022-12-25T07:57:59.948Z,38.78
2022-12-25T08:00:35.627Z,32.70
2022-12-25T08:03:06.825Z,27.75
2022-12-25T08:05:37.140Z,25.05
2022-12-25T08:08:08.077Z,24.95
2022-12-25T08:10:36.373Z,25.52
2022-12-25T08:13:13.945Z,34.78
2022-12-25T08:15:46.416Z,34.17
2022-12-25T08:18:15.923Z,35.22
2022-12-25T08:20:47.103Z,35.15
2022-12-25T08:23:16.875Z,32.50
2022-12-25T08:25:47.269Z,31.02
2022-12-25T08:28:16.880Z,31.13
2022-12-25T08:30:46.816Z,27.90
2022-12-25T08:33:16.965Z,27.98
2022-12-25T08:35:45.992Z,25.00
2022-12-25T08:38:13.569Z,27.23
2022-12-25T08:40:42.027Z,27.13
2022-12-25T08:43:10.638Z,26.38
2022-12-25T08:45:42.907Z,27.20
2022-12-25T08:48:11.723Z,27.52
2022-12-25T08:50:39.652Z,25.70
2022-12-25T08:53:11.655Z,26.98
2022-12-25T08:55:42.286Z,29.98
2022-12-25T08:58:12.253Z,29.15
2022-12-25T09:00:41.251Z,28.95
2022-12-25T09:03:10.961Z,30.58
2022-12-25T09:05:42.840Z,28.13
2022-12-25T09:08:11.997Z,28.88
2022-12-25T09:10:43.423Z,27.30
2022-12-25T09:13:11.168Z,29.50
2022-12-25T09:15:41.096Z,30.63
2022-12-25T09:18:08.435Z,30.80
2022-12-25T09:20:40.192Z,29.95
2022-12-25T09:23:14.068Z,30.58
2022-12-25T09:25:45.986Z,29.63
2022-12-25T09:28:17.626Z,30.17
2022-12-25T09:30:50.030Z,27.80
2022-12-25T09:33:20.397Z,27.20
2022-12-25T09:36:08.430Z,25.48
2022-12-25T09:38:36.176Z,26.30
2022-12-25T09:41:16.296Z,27.42
2022-12-25T09:43:51.275Z,25.35
2022-12-25T09:46:28.012Z,24.65
2022-12-25T09:49:28.851Z,26.58
2022-12-25T09:52:07.867Z,20.17
2022-12-25T09:54:58.529Z,25.15
2022-12-25T09:57:29.873Z,23.40
2022-12-25T10:00:00.485Z,20.73
2022-12-25T10:02:43.866Z,20.02
2022-12-25T10:05:29.484Z,20.85
2022-12-25T10:08:36.308Z,20.52
2022-12-25T10:11:45.441Z,21.20
2022-12-25T10:14:34.378Z,20.48
2022-12-25T10:17:14.391Z,18.42
2022-12-25T10:20:06.753Z,16.55
2022-12-25T10:23:05.199Z,14.98
2022-12-25T10:25:34.110Z,15.63
2022-12-25T10:28:13.690Z,14.80
2022-12-25T10:30:48.662Z,16.58
2022-12-25T10:33:19.137Z,15.82
2022-12-25T10:35:50.233Z,16.10
2022-12-25T10:38:19.979Z,15.98
2022-12-25T10:41:29.174Z,14.80
2022-12-25T10:44:01.621Z,16.30
2022-12-25T10:46:32.075Z,16.88
2022-12-25T10:49:07.232Z,17.23
2022-12-25T10:51:38.209Z,16.92
2022-12-25T10:54:34.901Z,18.35
2022-12-25T10:57:26.342Z,18.55
2022-12-25T10:59:59.011Z,20.20
2022-12-25T11:02:47.502Z,19.00
2022-12-25T11:05:30.728Z,20.10
2022-12-25T11:08:03.438Z,21.15
2022-12-25T11:10:39.748Z,20.95
2022-12-25T11:13:11.181Z,19.42
2022-12-25T11:15:44.942Z,19.17
2022-12-25T11:18:30.912Z,18.17
2022-12-25T11:21:03.461Z,19.20
2022-12-25T11:23:32.944Z,18.27
2022-12-25T11:26:02.434Z,19.88
2022-12-25T11:28:38.203Z,16.40
2022-12-25T11:31:43.398Z,15.65
2022-12-25T11:34:42.612Z,15.68
2022-12-25T11:37:18.049Z,15.68
2022-12-25T11:39:47.948Z,15.40
2022-12-25T11:42:51.869Z,14.30
2022-12-25T11:45:28.219Z,12.75
2022-12-25T11:48:21.788Z,10.20
2022-12-25T11:51:08.582Z,10.05
2022-12-25T11:53:57.351Z,11.48
2022-12-25T11:56:33.630Z,10.00
2022-12-25T11:59:25.970Z,9.98
2022-12-25T12:02:32.993Z,10.25
2022-12-25T12:05:58.694Z,11.48
2022-12-25T12:08:28.724Z,11.25
2022-12-25T12:11:38.500Z,9.85
2022-12-25T12:14:26.569Z,10.07
2022-12-25T12:16:57.573Z,10.55
2022-12-25T12:19:32.873Z,12.15
2022-12-25T12:22:17.495Z,12.38
2022-12-25T12:24:46.907Z,17.23
2022-12-25T12:27:40.579Z,15.90
2022-12-25T12:30:36.618Z,25.75
2022-12-25T12:33:09.314Z,24.63
2022-12-25T12:35:42.938Z,24.42
2022-12-25T12:38:29.509Z,19.13
2022-12-25T12:41:13.604Z,22.40
2022-12-25T12:44:08.033Z,23.63
2022-12-25T12:46:48.435Z,22.70
2022-12-25T12:49:34.417Z,20.55
2022-12-25T12:52:48.306Z,18.17
2022-12-25T12:55:41.863Z,17.90
2022-12-25T12:58:30.006Z,18.48
2022-12-25T13:01:32.834Z,19.20
2022-12-25T13:04:32.567Z,17.40
2022-12-25T13:07:30.816Z,15.25
2022-12-25T13:10:15.905Z,16.02
2022-12-25T13:12:47.522Z,16.53
2022-12-25T13:15:20.778Z,15.73
2022-12-25T13:21:03.852Z,15.95
2022-12-25T13:23:39.598Z,15.88
2022-12-25T13:26:19.426Z,17.98
2022-12-25T13:28:49.086Z,18.67
2022-12-25T13:31:31.660Z,20.50
2022-12-25T13:34:39.251Z,23.50
2022-12-25T13:37:38.647Z,20.85
2022-12-25T13:40:31.457Z,19.25
2022-12-25T13:43:04.727Z,18.73
2022-12-25T13:45:38.904Z,19.45
2022-12-25T13:48:22.937Z,21.63
2022-12-25T13:51:01.074Z,22.00
2022-12-25T13:53:34.066Z,23.40
2022-12-25T13:56:03.525Z,26.15
2022-12-25T14:01:19.456Z,29.92
2022-12-25T14:03:50.342Z,28.30
2022-12-25T14:06:28.704Z,26.77
2022-12-25T14:11:51.300Z,28.55
2022-12-25T14:14:24.450Z,31.33
2022-12-25T14:16:59.847Z,28.27
2022-12-25T14:19:34.225Z,25.50
2022-12-25T14:22:08.467Z,26.38
2022-12-25T14:24:41.472Z,25.30
2022-12-25T14:27:26.292Z,25.50
2022-12-25T14:30:01.627Z,25.80
2022-12-25T14:32:38.477Z,25.02
2022-12-25T14:35:23.529Z,26.77
2022-12-25T14:38:04.124Z,26.50
2022-12-25T14:40:38.841Z,27.15
2022-12-25T14:43:28.223Z,29.27
2022-12-25T14:46:08.154Z,30.45
2022-12-25T14:48:44.146Z,33.72
2022-12-25T14:51:20.398Z,31.52
2022-12-25T14:54:07.547Z,36.47
2022-12-25T14:56:48.713Z,35.63
2022-12-25T14:59:29.070Z,34.85
2022-12-25T15:02:03.684Z,26.27
2022-12-25T15:04:38.205Z,25.92
2022-12-25T15:07:23.795Z,26.38
2022-12-25T15:12:36.921Z,25.90
2022-12-25T15:15:08.685Z,25.20
2022-12-25T15:17:39.007Z,27.45
2022-12-25T15:20:17.966Z,27.23
2022-12-25T15:25:36.833Z,30.30
2022-12-25T15:28:13.057Z,30.10
2022-12-25T15:30:47.798Z,29.52
2022-12-25T15:33:23.121Z,30.63
2022-12-25T15:35:53.968Z,30.67
2022-12-25T15:38:24.351Z,28.48
2022-12-25T15:41:04.805Z,28.00
2022-12-25T15:43:42.409Z,26.67
2022-12-25T15:46:12.914Z,26.52
2022-12-25T15:48:42.300Z,29.58
2022-12-25T15:51:13.433Z,27.25
2022-12-25T15:53:44.384Z,28.10
2022-12-25T15:56:17.427Z,27.40
2022-12-25T15:58:52.921Z,29.17
2022-12-25T16:01:23.926Z,31.88
2022-12-25T16:03:57.631Z,31.73
2022-12-25T16:06:30.445Z,32.53
2022-12-25T16:09:02.489Z,31.80
2022-12-25T16:11:34.378Z,32.72
2022-12-25T16:14:04.423Z,30.65
2022-12-25T16:16:34.378Z,29.55
2022-12-25T16:19:10.176Z,31.52
2022-12-25T16:21:50.476Z,29.55
2022-12-25T16:24:20.534Z,32.05
2022-12-25T16:26:51.603Z,33.42
2022-12-25T16:29:26.332Z,31.48
2022-12-25T16:31:56.648Z,33.08
2022-12-25T16:34:26.758Z,32.63
2022-12-25T16:37:06.269Z,32.17
2022-12-25T16:39:54.644Z,30.33
2022-12-25T16:42:27.685Z,31.05
2022-12-25T16:44:55.392Z,31.85
2022-12-25T16:47:26.031Z,30.80
2022-12-25T16:49:58.604Z,30.65
2022-12-25T16:52:26.215Z,34.30
2022-12-25T16:55:00.963Z,31.45
2022-12-25T16:57:35.579Z,32.30
2022-12-25T17:00:06.369Z,32.92
2022-12-25T17:02:38.946Z,34.08
2022-12-25T17:05:09.926Z,34.67
2022-12-25T17:07:40.818Z,32.95
2022-12-25T17:10:13.867Z,32.72
2022-12-25T17:12:49.065Z,31.42
2022-12-25T17:15:23.194Z,32.90
2022-12-25T17:17:57.644Z,32.53
2022-12-25T17:23:23.259Z,33.58
2022-12-25T17:25:58.488Z,36.35
2022-12-25T17:28:28.802Z,33.90
2022-12-25T17:31:10.243Z,32.95
2022-12-25T17:33:42.169Z,38.20
2022-12-25T17:36:22.310Z,33.10
2022-12-25T17:38:50.414Z,36.40
2022-12-25T17:41:20.248Z,36.50
2022-12-25T17:43:57.007Z,34.55
2022-12-25T17:46:32.156Z,31.83
2022-12-25T17:49:05.494Z,30.35
2022-12-25T17:51:37.875Z,30.05
2022-12-25T17:54:13.113Z,30.27
2022-12-25T17:56:42.812Z,29.50
2022-12-25T17:59:27.885Z,28.65
2022-12-25T18:02:00.538Z,26.63
2022-12-25T18:04:32.841Z,26.20
2022-12-25T18:07:07.003Z,24.23
2022-12-25T18:09:39.289Z,23.70
2022-12-25T18:12:10.295Z,26.48
2022-12-25T18:14:48.831Z,23.77
2022-12-25T18:17:20.251Z,19.25
2022-12-25T18:19:57.118Z,17.25
2022-12-25T18:22:32.707Z,15.10
2022-12-25T18:25:01.576Z,15.45
2022-12-25T18:27:31.950Z,14.98
2022-12-25T18:30:06.004Z,13.98
2022-12-25T18:32:36.360Z,22.77
2022-12-25T18:35:08.968Z,17.15
2022-12-25T18:37:41.731Z,11.60
2022-12-25T18:40:16.154Z,14.25
2022-12-25T18:42:46.682Z,13.50
2022-12-25T18:45:18.846Z,13.70
2022-12-25T18:47:51.616Z,13.75
2022-12-25T18:50:24.621Z,15.82
2022-12-25T18:52:54.645Z,15.02
2022-12-25T18:55:30.088Z,12.35
2022-12-25T19:00:32.769Z,12.77
2022-12-25T19:03:07.848Z,12.15
2022-12-25T19:05:39.061Z,12.55
2022-12-25T19:08:11.247Z,12.98
2022-12-25T19:10:46.618Z,13.93
2022-12-25T19:16:00.487Z,13.35
2022-12-25T19:18:33.866Z,13.75
2022-12-25T19:21:11.859Z,14.45
2022-12-25T19:23:45.532Z,14.23
2022-12-25T19:26:15.880Z,12.65
2022-12-25T19:28:43.347Z,12.98
2022-12-25T19:31:16.047Z,12.40
2022-12-25T19:33:46.774Z,11.27
2022-12-25T19:36:21.611Z,11.77
2022-12-25T19:38:56.248Z,11.32
2022-12-25T19:41:24.978Z,10.77
2022-12-25T19:43:54.660Z,10.65
2022-12-25T19:46:40.458Z,10.48
2022-12-25T19:49:16.382Z,11.38
2022-12-25T19:51:53.012Z,12.50
2022-12-25T19:54:45.247Z,11.90
2022-12-25T19:57:16.012Z,10.60
2022-12-25T19:59:44.622Z,10.57
2022-12-25T20:02:20.821Z,9.57
2022-12-25T20:04:49.417Z,9.63
2022-12-25T20:07:18.205Z,9.18
2022-12-25T20:09:52.307Z,9.93
2022-12-25T20:12:25.207Z,9.80
2022-12-25T20:14:58.493Z,9.50
2022-12-25T20:17:31.867Z,8.77
2022-12-25T20:20:01.225Z,8.93
2022-12-25T20:22:33.371Z,8.07
2022-12-25T20:25:06.404Z,8.77
2022-12-25T20:27:39.780Z,9.55
2022-12-25T20:32:52.922Z,8.00
2022-12-25T20:35:23.182Z,8.75
2022-12-25T20:37:53.589Z,9.77
2022-12-25T20:40:28.392Z,9.93
2022-12-25T20:42:58.515Z,9.10
2022-12-25T20:45:30.836Z,9.40
2022-12-25T20:48:03.067Z,9.85
2022-12-25T20:50:39.434Z,9.60
2022-12-25T20:53:07.897Z,9.45
2022-12-25T20:55:53.648Z,10.20
2022-12-25T20:58:37.974Z,16.25
2022-12-25T21:01:34.037Z,16.25
2022-12-25T21:04:16.251Z,13.90
2022-12-25T21:06:46.426Z,12.10
2022-12-25T21:09:16.228Z,12.50
2022-12-25T21:11:53.647Z,12.52
2022-12-25T21:14:24.012Z,14.25
2022-12-25T21:16:52.230Z,12.82
2022-12-25T21:19:21.646Z,14.82
2022-12-25T21:22:04.683Z,13.18
2022-12-25T21:24:38.456Z,13.37
2022-12-25T21:27:10.655Z,14.88
2022-12-25T21:29:42.143Z,13.43
2022-12-25T21:32:29.120Z,14.38
2022-12-25T21:35:04.844Z,15.88
2022-12-25T21:37:35.552Z,16.58
2022-12-25T21:40:16.505Z,14.82
2022-12-25T21:42:47.944Z,18.10
2022-12-25T21:45:16.494Z,18.98
2022-12-25T21:48:01.433Z,20.38
2022-12-25T21:50:54.708Z,20.50
2022-12-25T21:53:27.306Z,19.52
2022-12-25T21:56:00.716Z,18.83
2022-12-25T21:58:33.295Z,21.52
2022-12-25T22:01:04.793Z,20.50
2022-12-25T22:03:36.137Z,20.17
2022-12-25T22:06:34.186Z,19.55
2022-12-25T22:09:02.825Z,18.63
2022-12-25T22:11:51.961Z,16.77
2022-12-25T22:14:52.187Z,21.35
2022-12-25T22:18:00.292Z,20.05
2022-12-25T22:20:52.420Z,18.77
2022-12-25T22:23:26.791Z,16.42
2022-12-25T22:25:58.810Z,18.77
2022-12-25T22:28:26.331Z,19.10
2022-12-25T22:30:56.900Z,19.95
2022-12-25T22:33:30.096Z,17.77
2022-12-25T22:36:12.263Z,19.98
2022-12-25T22:38:44.743Z,19.65
2022-12-25T22:41:16.011Z,18.95
2022-12-25T22:44:15.996Z,18.52
2022-12-25T22:46:36.120Z,16.25
2022-12-25T22:49:09.786Z,19.45
2022-12-25T22:51:37.755Z,14.88
2022-12-25T22:54:11.047Z,19.20
2022-12-25T22:56:42.018Z,18.45
2022-12-25T22:59:14.907Z,18.48
2022-12-25T23:01:47.869Z,17.58
2022-12-25T23:04:19.488Z,20.58
2022-12-25T23:06:53.558Z,19.30
2022-12-25T23:09:30.360Z,18.70
2022-12-25T23:12:02.033Z,17.80
2022-12-25T23:14:44.051Z,17.52
2022-12-25T23:17:34.818Z,17.67
2022-12-25T23:20:26.125Z,14.30
2022-12-25T23:23:18.832Z,18.20
2022-12-25T23:26:08.386Z,19.42
2022-12-25T23:28:59.496Z,19.77
2022-12-25T23:31:42.081Z,19.25
2022-12-25T23:34:15.425Z,20.13
2022-12-25T23:36:48.428Z,19.65
2022-12-25T23:39:20.145Z,27.80
2022-12-25T23:41:54.946Z,22.80
2022-12-25T23:44:22.702Z,20.40
2022-12-25T23:46:53.701Z,19.30
2022-12-25T23:49:24.820Z,20.25
2022-12-25T23:51:53.724Z,20.27
2022-12-25T23:54:43.381Z,19.67
2022-12-25T23:57:17.176Z,20.30
2022-12-25T23:59:48.275Z,20.42
